CCGS Cape Naden — CFN5482 — position and weather

sailwx.info

Track history (hours):
 
Tides and Currents Weather Stations Pressure Air Temp Water Temp Dewpoint Dewpoint Depression Visibility Wind Speed Wind Dir Waves Ship Positions

CCGS Cape Naden

Last reported at 2014-Sep-01 11:29 UTC. Time now 2014-Sep-01 11:43 UTC.
Position N 48°51' W 123°30'.

Length 15 m; draft 0.8 m.

Type: SAR. MMSI: 316017162.

Date/timePositionNaut miles runAvg speedWind from/ knotsBaromVisibWave heightAir tempDewpointWater temp
2014-Sep-01 11:29N 48°51' W 123°30'0 0.0
2014-Sep-01 10:32N 48°51' W 123°30'0 0.0
2014-Sep-01 09:32N 48°51' W 123°30'0 0.0
2014-Sep-01 08:33N 48°51' W 123°30'0 0.0
2014-Sep-01 07:32N 48°51' W 123°30'0 0.0
2014-Sep-01 06:31N 48°51' W 123°30'3 3.0
2014-Sep-01 05:28N 48°51' W 123°25'1815.1
2014-Sep-01 04:17N 49°05' W 123°42'6 6.7
2014-Sep-01 03:23N 49°00' W 123°36'1012.3
2014-Sep-01 02:33N 48°51' W 123°30'0 0.0
2014-Sep-01 01:33N 48°51' W 123°30'0 0.0
2014-Sep-01 00:33N 48°51' W 123°30'0 0.0
2014-Aug-31 23:34N 48°51' W 123°30'0 0.0
2014-Aug-31 22:28N 48°51' W 123°30'0 0.0
2014-Aug-31 21:33N 48°51' W 123°30'0 0.0
2014-Aug-31 20:34N 48°51' W 123°30'0 0.0
2014-Aug-31 19:34N 48°51' W 123°30'0 0.0
2014-Aug-31 18:33N 48°51' W 123°30'0 0.0
2014-Aug-31 17:33N 48°51' W 123°30'0 0.0
2014-Aug-31 16:33N 48°51' W 123°30'0 0.0
2014-Aug-31 15:28N 48°51' W 123°30'0 0.0
2014-Aug-31 14:33N 48°51' W 123°30'0 0.0
2014-Aug-31 13:33N 48°51' W 123°30'0 0.0
2014-Aug-31 12:32N 48°51' W 123°30'0 0.0
2014-Aug-31 11:33N 48°51' W 123°30'0 0.0
2014-Aug-31 10:32N 48°51' W 123°30'0 0.0
2014-Aug-31 09:34N 48°51' W 123°30'0 0.0
2014-Aug-31 08:33N 48°51' W 123°30'0 0.0
2014-Aug-31 07:33N 48°51' W 123°30'0 0.0
2014-Aug-31 06:33N 48°51' W 123°30'0 0.0
2014-Aug-31 05:33N 48°51' W 123°30'0 0.0
2014-Aug-31 04:33N 48°51' W 123°30'0 0.0
2014-Aug-31 03:34N 48°51' W 123°30'0 0.0
2014-Aug-31 02:34N 48°51' W 123°30'0 0.0
2014-Aug-31 01:33N 48°51' W 123°30'0 0.0
2014-Aug-31 00:33N 48°51' W 123°30'0 0.0
2014-Aug-30 23:33N 48°51' W 123°30'0 0.0
2014-Aug-30 22:33N 48°51' W 123°30'3 1.6
2014-Aug-30 20:22N 48°50' W 123°35'5 2.9
2014-Aug-30 18:30N 48°55' W 123°32'4 3.7
2014-Aug-30 17:22N 48°51' W 123°30'0 0.1
2014-Aug-30 16:32N 48°51' W 123°30'0 0.0
2014-Aug-30 15:33N 48°51' W 123°30'0 0.0
2014-Aug-30 14:33N 48°51' W 123°30'0 0.0
2014-Aug-30 13:33N 48°51' W 123°30'0 0.0
2014-Aug-30 12:33N 48°51' W 123°30'0 0.0
2014-Aug-30 11:33N 48°51' W 123°30'0 0.0
2014-Aug-30 10:34N 48°51' W 123°30'0 0.0
2014-Aug-30 09:33N 48°51' W 123°30'0 0.0
2014-Aug-30 08:28N 48°51' W 123°30'0 0.0
2014-Aug-30 07:33N 48°51' W 123°30'0 0.0
2014-Aug-30 06:33N 48°51' W 123°30'0 0.0
2014-Aug-30 05:18N 48°51' W 123°30'0 0.0
2014-Aug-30 04:30N 48°51' W 123°30'0 0.0
2014-Aug-30 03:27N 48°51' W 123°30'0 0.0
2014-Aug-30 02:34N 48°51' W 123°30'0 0.0
2014-Aug-30 01:33N 48°51' W 123°30'0 0.0
2014-Aug-30 00:32N 48°51' W 123°30'0 0.0
2014-Aug-29 23:28N 48°51' W 123°30'0 0.0
2014-Aug-29 22:21N 48°51' W 123°30'0 0.0
2014-Aug-29 21:29N 48°51' W 123°30'0 0.0
2014-Aug-29 20:24N 48°51' W 123°30'0 0.0
2014-Aug-29 19:23N 48°51' W 123°30'0 0.0
2014-Aug-29 18:32N 48°51' W 123°30'0 0.0
2014-Aug-29 16:08N 48°51' W 123°30'0 0.0
2014-Aug-29 15:32N 48°51' W 123°30'0 0.0
2014-Aug-29 14:22N 48°51' W 123°30'0 0.0
2014-Aug-29 13:34N 48°51' W 123°30'0 0.0
2014-Aug-29 12:33N 48°51' W 123°30'0 0.0
2014-Aug-29 11:34N 48°51' W 123°30'0 0.0
2014-Aug-29 10:29N 48°51' W 123°30'0 0.0
2014-Aug-29 09:33N 48°51' W 123°30'0 0.0
2014-Aug-29 08:33N 48°51' W 123°30'0 0.0
2014-Aug-29 07:34N 48°51' W 123°30'0 0.0
2014-Aug-29 06:33N 48°51' W 123°30'0 0.0
2014-Aug-29 05:32N 48°51' W 123°30'0 0.0
2014-Aug-29 04:30N 48°51' W 123°30'0 0.0
2014-Aug-29 03:33N 48°51' W 123°30'0 0.0
2014-Aug-29 02:31N 48°51' W 123°30'10 9.0
2014-Aug-29 01:23N 49°01' W 123°35'4 4.3
2014-Aug-29 00:33N 49°04' W 123°33'1 0.8
2014-Aug-28 23:28N 49°04' W 123°31'12 3.7
2014-Aug-28 20:06N 48°51' W 123°30'0 0.0
2014-Aug-28 19:10N 48°51' W 123°30'0 0.0
2014-Aug-28 17:13N 48°51' W 123°30'0 0.0
2014-Aug-28 16:30N 48°51' W 123°30'0 0.0
2014-Aug-28 14:31N 48°51' W 123°30'0 0.0
2014-Aug-28 13:33N 48°51' W 123°30'0 0.0
2014-Aug-28 12:32N 48°51' W 123°30'0 0.0
2014-Aug-28 11:33N 48°51' W 123°30'0 0.0
2014-Aug-28 10:33N 48°51' W 123°30'0 0.0
2014-Aug-28 09:29N 48°51' W 123°30'0 0.0
2014-Aug-28 08:13N 48°51' W 123°30'0 0.0
2014-Aug-28 07:29N 48°51' W 123°30'0 0.0
2014-Aug-28 06:14N 48°51' W 123°30'0 0.0
2014-Aug-28 05:21N 48°51' W 123°30'0 0.0
2014-Aug-28 04:32N 48°51' W 123°30'0 0.0
2014-Aug-28 03:32N 48°51' W 123°30'0 0.0
2014-Aug-28 02:18N 48°51' W 123°30'0 0.0
2014-Aug-28 01:27N 48°51' W 123°30'0 0.0
2014-Aug-27 23:14N 48°51' W 123°30'0 0.0
2014-Aug-27 22:30N 48°51' W 123°30'0 0.0
2014-Aug-27 21:29N 48°51' W 123°30'1 0.4
2014-Aug-27 20:11N 48°51' W 123°29'1 0.7
2014-Aug-27 19:24N 48°51' W 123°30'0 0.0
2014-Aug-27 18:21N 48°51' W 123°30'0 0.0
2014-Aug-27 17:31N 48°51' W 123°30'0 0.0
2014-Aug-27 16:31N 48°51' W 123°30'0 0.0
2014-Aug-27 15:21N 48°51' W 123°30'0 0.0
2014-Aug-27 14:28N 48°51' W 123°30'0 0.0
2014-Aug-27 13:28N 48°51' W 123°30'0 0.0
2014-Aug-27 04:10N 48°51' W 123°30'0 0.0
2014-Aug-27 03:32N 48°51' W 123°30'0 0.0
2014-Aug-27 02:33N 48°51' W 123°30'0 0.0
2014-Aug-27 01:32N 48°51' W 123°30'0 0.0
2014-Aug-27 00:30N 48°51' W 123°30'0 0.0
2014-Aug-26 23:33N 48°51' W 123°30'0 0.0
2014-Aug-26 22:32N 48°51' W 123°30'0 0.0
2014-Aug-26 21:31N 48°51' W 123°30'0 0.0
2014-Aug-26 20:32N 48°51' W 123°30'0 0.0
2014-Aug-26 18:09N 48°51' W 123°30'0 0.0
2014-Aug-26 17:33N 48°51' W 123°30'0 0.0
2014-Aug-26 16:26N 48°51' W 123°30'0 0.0
2014-Aug-26 15:31N 48°51' W 123°30'0 0.0
2014-Aug-26 14:32N 48°51' W 123°30'0 0.0
2014-Aug-26 13:27N 48°51' W 123°30'0 0.0
2014-Aug-26 12:33N 48°51' W 123°30'0 0.0
2014-Aug-26 11:27N 48°51' W 123°30'0 0.0
2014-Aug-26 10:30N 48°51' W 123°30'0 0.0
2014-Aug-26 09:32N 48°51' W 123°30'0 0.0
2014-Aug-26 07:09N 48°51' W 123°30'0 0.0
2014-Aug-26 06:25N 48°51' W 123°30'0 0.0
2014-Aug-26 05:27N 48°51' W 123°30'0 0.0
2014-Aug-26 04:33N 48°51' W 123°30'0 0.0
2014-Aug-26 03:33N 48°51' W 123°30'0 0.0
2014-Aug-26 02:03N 48°51' W 123°30'0 0.0
2014-Aug-26 01:33N 48°51' W 123°30'0 0.0
2014-Aug-26 00:33N 48°51' W 123°30'0 0.0
2014-Aug-25 23:27N 48°51' W 123°30'0 0.0
2014-Aug-25 22:26N 48°51' W 123°30'0 0.0
2014-Aug-25 21:32N 48°51' W 123°30'0 0.0
2014-Aug-25 20:27N 48°51' W 123°30'0 0.0
2014-Aug-25 19:29N 48°51' W 123°30'0 0.0
2014-Aug-25 14:33N 48°51' W 123°30'0 0.0
2014-Aug-25 13:33N 48°51' W 123°30'0 0.0
2014-Aug-25 12:33N 48°51' W 123°30'0 0.0
2014-Aug-25 11:33N 48°51' W 123°30'0 0.0
2014-Aug-25 10:32N 48°51' W 123°30'0 0.0
2014-Aug-25 09:33N 48°51' W 123°30'0 0.0
2014-Aug-25 08:32N 48°51' W 123°30'0 0.0
2014-Aug-25 07:30N 48°51' W 123°30'0 0.0
2014-Aug-25 06:32N 48°51' W 123°30'0 0.0
2014-Aug-25 04:28N 48°51' W 123°30'0 0.0
2014-Aug-25 03:33N 48°51' W 123°30'0 0.0
2014-Aug-25 02:33N 48°51' W 123°30'0 0.0
2014-Aug-25 01:33N 48°51' W 123°30'0 0.0
2014-Aug-25 00:09N 48°51' W 123°30'0 0.0
2014-Aug-24 23:19N 48°51' W 123°30'0 0.0
2014-Aug-24 21:20N 48°51' W 123°30'0 0.0
2014-Aug-24 18:32N 48°51' W 123°30'0 0.0
2014-Aug-24 16:30N 48°51' W 123°30'0 0.0
2014-Aug-24 15:07N 48°51' W 123°30'0 0.0
2014-Aug-24 14:30N 48°51' W 123°30'0 0.0
2014-Aug-24 13:30N 48°51' W 123°30'0 0.0
2014-Aug-24 12:28N 48°51' W 123°30'0 0.0
2014-Aug-24 11:27N 48°51' W 123°30'0 0.0
2014-Aug-24 09:31N 48°51' W 123°30'0 0.0
2014-Aug-24 08:31N 48°51' W 123°30'0 0.0
2014-Aug-24 03:33N 48°51' W 123°30'0 0.0
2014-Aug-24 02:33N 48°51' W 123°30'0 0.0
2014-Aug-24 01:33N 48°51' W 123°30'0 0.0
2014-Aug-24 00:14N 48°51' W 123°30'0 0.0
2014-Aug-23 19:32N 48°51' W 123°30'0 0.0
2014-Aug-22 18:16N 48°51' W 123°30'0 0.0
2014-Aug-22 15:22N 48°51' W 123°30'0 0.0
2014-Aug-22 13:32N 48°51' W 123°30'0 0.0
2014-Aug-22 12:25N 48°51' W 123°30'0 0.0
2014-Aug-22 11:33N 48°51' W 123°30'  
Track history (hours):
 
Tides and Currents Weather Stations Pressure Air Temp Water Temp Dewpoint Dewpoint Depression Visibility Wind Speed Wind Dir Waves Ship Positions

CCGS Cape Naden

Last reported at 2014-Sep-01 11:29 UTC. Time now 2014-Sep-01 11:43 UTC.
Position N 48°51' W 123°30'.

Length 15 m; draft 0.8 m.

Type: SAR. MMSI: 316017162.

Date/timePositionNaut miles runAvg speedWind from/ knotsBaromVisibWave heightAir tempDewpointWater temp
2014-Sep-01 11:29N 48°51' W 123°30'0 0.0
2014-Sep-01 10:32N 48°51' W 123°30'0 0.0
2014-Sep-01 09:32N 48°51' W 123°30'0 0.0
2014-Sep-01 08:33N 48°51' W 123°30'0 0.0
2014-Sep-01 07:32N 48°51' W 123°30'0 0.0
2014-Sep-01 06:31N 48°51' W 123°30'3 3.0
2014-Sep-01 05:28N 48°51' W 123°25'1815.1
2014-Sep-01 04:17N 49°05' W 123°42'6 6.7
2014-Sep-01 03:23N 49°00' W 123°36'1012.3
2014-Sep-01 02:33N 48°51' W 123°30'0 0.0
2014-Sep-01 01:33N 48°51' W 123°30'0 0.0
2014-Sep-01 00:33N 48°51' W 123°30'0 0.0
2014-Aug-31 23:34N 48°51' W 123°30'0 0.0
2014-Aug-31 22:28N 48°51' W 123°30'0 0.0
2014-Aug-31 21:33N 48°51' W 123°30'0 0.0
2014-Aug-31 20:34N 48°51' W 123°30'0 0.0
2014-Aug-31 19:34N 48°51' W 123°30'0 0.0
2014-Aug-31 18:33N 48°51' W 123°30'0 0.0
2014-Aug-31 17:33N 48°51' W 123°30'0 0.0
2014-Aug-31 16:33N 48°51' W 123°30'0 0.0
2014-Aug-31 15:28N 48°51' W 123°30'0 0.0
2014-Aug-31 14:33N 48°51' W 123°30'0 0.0
2014-Aug-31 13:33N 48°51' W 123°30'0 0.0
2014-Aug-31 12:32N 48°51' W 123°30'0 0.0
2014-Aug-31 11:33N 48°51' W 123°30'0 0.0
2014-Aug-31 10:32N 48°51' W 123°30'0 0.0
2014-Aug-31 09:34N 48°51' W 123°30'0 0.0
2014-Aug-31 08:33N 48°51' W 123°30'0 0.0
2014-Aug-31 07:33N 48°51' W 123°30'0 0.0
2014-Aug-31 06:33N 48°51' W 123°30'0 0.0
2014-Aug-31 05:33N 48°51' W 123°30'0 0.0
2014-Aug-31 04:33N 48°51' W 123°30'0 0.0
2014-Aug-31 03:34N 48°51' W 123°30'0 0.0
2014-Aug-31 02:34N 48°51' W 123°30'0 0.0
2014-Aug-31 01:33N 48°51' W 123°30'0 0.0
2014-Aug-31 00:33N 48°51' W 123°30'0 0.0
2014-Aug-30 23:33N 48°51' W 123°30'0 0.0
2014-Aug-30 22:33N 48°51' W 123°30'3 1.6
2014-Aug-30 20:22N 48°50' W 123°35'5 2.9
2014-Aug-30 18:30N 48°55' W 123°32'4 3.7
2014-Aug-30 17:22N 48°51' W 123°30'0 0.1
2014-Aug-30 16:32N 48°51' W 123°30'0 0.0
2014-Aug-30 15:33N 48°51' W 123°30'0 0.0
2014-Aug-30 14:33N 48°51' W 123°30'0 0.0
2014-Aug-30 13:33N 48°51' W 123°30'0 0.0
2014-Aug-30 12:33N 48°51' W 123°30'0 0.0
2014-Aug-30 11:33N 48°51' W 123°30'0 0.0
2014-Aug-30 10:34N 48°51' W 123°30'0 0.0
2014-Aug-30 09:33N 48°51' W 123°30'0 0.0
2014-Aug-30 08:28N 48°51' W 123°30'0 0.0
2014-Aug-30 07:33N 48°51' W 123°30'0 0.0
2014-Aug-30 06:33N 48°51' W 123°30'0 0.0
2014-Aug-30 05:18N 48°51' W 123°30'0 0.0
2014-Aug-30 04:30N 48°51' W 123°30'0 0.0
2014-Aug-30 03:27N 48°51' W 123°30'0 0.0
2014-Aug-30 02:34N 48°51' W 123°30'0 0.0
2014-Aug-30 01:33N 48°51' W 123°30'0 0.0
2014-Aug-30 00:32N 48°51' W 123°30'0 0.0
2014-Aug-29 23:28N 48°51' W 123°30'0 0.0
2014-Aug-29 22:21N 48°51' W 123°30'0 0.0
2014-Aug-29 21:29N 48°51' W 123°30'0 0.0
2014-Aug-29 20:24N 48°51' W 123°30'0 0.0
2014-Aug-29 19:23N 48°51' W 123°30'0 0.0
2014-Aug-29 18:32N 48°51' W 123°30'0 0.0
2014-Aug-29 16:08N 48°51' W 123°30'0 0.0
2014-Aug-29 15:32N 48°51' W 123°30'0 0.0
2014-Aug-29 14:22N 48°51' W 123°30'0 0.0
2014-Aug-29 13:34N 48°51' W 123°30'0 0.0
2014-Aug-29 12:33N 48°51' W 123°30'0 0.0
2014-Aug-29 11:34N 48°51' W 123°30'0 0.0
2014-Aug-29 10:29N 48°51' W 123°30'0 0.0
2014-Aug-29 09:33N 48°51' W 123°30'0 0.0
2014-Aug-29 08:33N 48°51' W 123°30'0 0.0
2014-Aug-29 07:34N 48°51' W 123°30'0 0.0
2014-Aug-29 06:33N 48°51' W 123°30'0 0.0
2014-Aug-29 05:32N 48°51' W 123°30'0 0.0
2014-Aug-29 04:30N 48°51' W 123°30'0 0.0
2014-Aug-29 03:33N 48°51' W 123°30'0 0.0
2014-Aug-29 02:31N 48°51' W 123°30'10 9.0
2014-Aug-29 01:23N 49°01' W 123°35'4 4.3
2014-Aug-29 00:33N 49°04' W 123°33'1 0.8
2014-Aug-28 23:28N 49°04' W 123°31'12 3.7
2014-Aug-28 20:06N 48°51' W 123°30'0 0.0
2014-Aug-28 19:10N 48°51' W 123°30'0 0.0
2014-Aug-28 17:13N 48°51' W 123°30'0 0.0
2014-Aug-28 16:30N 48°51' W 123°30'0 0.0
2014-Aug-28 14:31N 48°51' W 123°30'0 0.0
2014-Aug-28 13:33N 48°51' W 123°30'0 0.0
2014-Aug-28 12:32N 48°51' W 123°30'0 0.0
2014-Aug-28 11:33N 48°51' W 123°30'0 0.0
2014-Aug-28 10:33N 48°51' W 123°30'0 0.0
2014-Aug-28 09:29N 48°51' W 123°30'0 0.0
2014-Aug-28 08:13N 48°51' W 123°30'0 0.0
2014-Aug-28 07:29N 48°51' W 123°30'0 0.0
2014-Aug-28 06:14N 48°51' W 123°30'0 0.0
2014-Aug-28 05:21N 48°51' W 123°30'0 0.0
2014-Aug-28 04:32N 48°51' W 123°30'0 0.0
2014-Aug-28 03:32N 48°51' W 123°30'0 0.0
2014-Aug-28 02:18N 48°51' W 123°30'0 0.0
2014-Aug-28 01:27N 48°51' W 123°30'0 0.0
2014-Aug-27 23:14N 48°51' W 123°30'0 0.0
2014-Aug-27 22:30N 48°51' W 123°30'0 0.0
2014-Aug-27 21:29N 48°51' W 123°30'1 0.4
2014-Aug-27 20:11N 48°51' W 123°29'1 0.7
2014-Aug-27 19:24N 48°51' W 123°30'0 0.0
2014-Aug-27 18:21N 48°51' W 123°30'0 0.0
2014-Aug-27 17:31N 48°51' W 123°30'0 0.0
2014-Aug-27 16:31N 48°51' W 123°30'0 0.0
2014-Aug-27 15:21N 48°51' W 123°30'0 0.0
2014-Aug-27 14:28N 48°51' W 123°30'0 0.0
2014-Aug-27 13:28N 48°51' W 123°30'0 0.0
2014-Aug-27 04:10N 48°51' W 123°30'0 0.0
2014-Aug-27 03:32N 48°51' W 123°30'0 0.0
2014-Aug-27 02:33N 48°51' W 123°30'0 0.0
2014-Aug-27 01:32N 48°51' W 123°30'0 0.0
2014-Aug-27 00:30N 48°51' W 123°30'0 0.0
2014-Aug-26 23:33N 48°51' W 123°30'0 0.0
2014-Aug-26 22:32N 48°51' W 123°30'0 0.0
2014-Aug-26 21:31N 48°51' W 123°30'0 0.0
2014-Aug-26 20:32N 48°51' W 123°30'0 0.0
2014-Aug-26 18:09N 48°51' W 123°30'0 0.0
2014-Aug-26 17:33N 48°51' W 123°30'0 0.0
2014-Aug-26 16:26N 48°51' W 123°30'0 0.0
2014-Aug-26 15:31N 48°51' W 123°30'0 0.0
2014-Aug-26 14:32N 48°51' W 123°30'0 0.0
2014-Aug-26 13:27N 48°51' W 123°30'0 0.0
2014-Aug-26 12:33N 48°51' W 123°30'0 0.0
2014-Aug-26 11:27N 48°51' W 123°30'0 0.0
2014-Aug-26 10:30N 48°51' W 123°30'0 0.0
2014-Aug-26 09:32N 48°51' W 123°30'0 0.0
2014-Aug-26 07:09N 48°51' W 123°30'0 0.0
2014-Aug-26 06:25N 48°51' W 123°30'0 0.0
2014-Aug-26 05:27N 48°51' W 123°30'0 0.0
2014-Aug-26 04:33N 48°51' W 123°30'0 0.0
2014-Aug-26 03:33N 48°51' W 123°30'0 0.0
2014-Aug-26 02:03N 48°51' W 123°30'0 0.0
2014-Aug-26 01:33N 48°51' W 123°30'0 0.0
2014-Aug-26 00:33N 48°51' W 123°30'0 0.0
2014-Aug-25 23:27N 48°51' W 123°30'0 0.0
2014-Aug-25 22:26N 48°51' W 123°30'0 0.0
2014-Aug-25 21:32N 48°51' W 123°30'0 0.0
2014-Aug-25 20:27N 48°51' W 123°30'0 0.0
2014-Aug-25 19:29N 48°51' W 123°30'0 0.0
2014-Aug-25 14:33N 48°51' W 123°30'0 0.0
2014-Aug-25 13:33N 48°51' W 123°30'0 0.0
2014-Aug-25 12:33N 48°51' W 123°30'0 0.0
2014-Aug-25 11:33N 48°51' W 123°30'0 0.0
2014-Aug-25 10:32N 48°51' W 123°30'0 0.0
2014-Aug-25 09:33N 48°51' W 123°30'0 0.0
2014-Aug-25 08:32N 48°51' W 123°30'0 0.0
2014-Aug-25 07:30N 48°51' W 123°30'0 0.0
2014-Aug-25 06:32N 48°51' W 123°30'0 0.0
2014-Aug-25 04:28N 48°51' W 123°30'0 0.0
2014-Aug-25 03:33N 48°51' W 123°30'0 0.0
2014-Aug-25 02:33N 48°51' W 123°30'0 0.0
2014-Aug-25 01:33N 48°51' W 123°30'0 0.0
2014-Aug-25 00:09N 48°51' W 123°30'0 0.0
2014-Aug-24 23:19N 48°51' W 123°30'0 0.0
2014-Aug-24 21:20N 48°51' W 123°30'0 0.0
2014-Aug-24 18:32N 48°51' W 123°30'0 0.0
2014-Aug-24 16:30N 48°51' W 123°30'0 0.0
2014-Aug-24 15:07N 48°51' W 123°30'0 0.0
2014-Aug-24 14:30N 48°51' W 123°30'0 0.0
2014-Aug-24 13:30N 48°51' W 123°30'0 0.0
2014-Aug-24 12:28N 48°51' W 123°30'0 0.0
2014-Aug-24 11:27N 48°51' W 123°30'0 0.0
2014-Aug-24 09:31N 48°51' W 123°30'0 0.0
2014-Aug-24 08:31N 48°51' W 123°30'0 0.0
2014-Aug-24 03:33N 48°51' W 123°30'0 0.0
2014-Aug-24 02:33N 48°51' W 123°30'0 0.0
2014-Aug-24 01:33N 48°51' W 123°30'0 0.0
2014-Aug-24 00:14N 48°51' W 123°30'0 0.0
2014-Aug-23 19:32N 48°51' W 123°30'0 0.0
2014-Aug-22 18:16N 48°51' W 123°30'0 0.0
2014-Aug-22 15:22N 48°51' W 123°30'0 0.0
2014-Aug-22 13:32N 48°51' W 123°30'0 0.0
2014-Aug-22 12:25N 48°51' W 123°30'0 0.0
2014-Aug-22 11:33N 48°51' W 123°30'  

Dump ship's entire track history